Time;durP1;ratioP1;P1;durP2;ratioP2;P2;SDS_P1;SDS_P2;PMS_P1;PMS_P2;Temp;Humidity;BMP_temperature;BMP_pressure;BME280_temperature;BME280_humidity;BME280_pressure;Samples;Min_cycle;Max_cycle;Signal;HPM_P1;HPM_P2
2023/07/09 00:00:22;;;;;;;6.88;4.70;;;;;;;;;;5051888;28;20029;-74
2023/07/09 00:02:48;;;;;;;6.95;4.45;;;;;;;;;;5052761;28;20037;-74
2023/07/09 00:05:16;;;;;;;9.00;5.18;;;;;;;;;;5034766;28;20464;-75
2023/07/09 00:07:43;;;;;;;9.32;4.93;;;;;;;;;;5051684;28;20067;-74
2023/07/09 00:10:19;;;;;;;12.35;5.18;;;;;;;;;;5051706;28;20028;-74
2023/07/09 00:12:46;;;;;;;7.43;4.90;;;;;;;;;;5052073;28;20036;-74
2023/07/09 00:15:13;;;;;;;6.18;4.85;;;;;;;;;;5054772;28;20044;-75
2023/07/09 00:17:39;;;;;;;5.72;4.80;;;;;;;;;;5054803;28;20025;-75
2023/07/09 00:20:11;;;;;;;6.70;5.15;;;;;;;;;;5075224;28;20445;-75
2023/07/09 00:22:36;;;;;;;7.75;5.07;;;;;;;;;;5059660;28;20028;-75
2023/07/09 00:25:02;;;;;;;6.88;5.40;;;;;;;;;;5076666;28;20171;-75
2023/07/09 00:27:28;;;;;;;7.80;5.13;;;;;;;;;;5058419;28;20036;-75
2023/07/09 00:29:54;;;;;;;7.25;5.10;;;;;;;;;;5041730;28;20418;-74
2023/07/09 00:32:24;;;;;;;6.18;5.07;;;;;;;;;;5058441;28;20043;-75
2023/07/09 00:34:51;;;;;;;6.65;5.07;;;;;;;;;;5076705;28;20051;-75
2023/07/09 00:37:19;;;;;;;5.80;4.80;;;;;;;;;;5058749;28;20104;-75
2023/07/09 00:39:48;;;;;;;6.72;5.10;;;;;;;;;;5058367;28;20024;-75
2023/07/09 00:42:17;;;;;;;6.95;4.88;;;;;;;;;;5058214;28;20021;-75
2023/07/09 00:44:47;;;;;;;7.18;5.05;;;;;;;;;;5076293;28;20480;-74
2023/07/09 00:47:18;;;;;;;7.78;5.00;;;;;;;;;;5058241;28;20043;-75
2023/07/09 00:49:47;;;;;;;7.93;5.20;;;;;;;;;;5057964;28;20475;-75
2023/07/09 00:52:53;;;;;;;8.25;5.15;;;;;;;;;;5058500;28;20025;-75
2023/07/09 00:55:23;;;;;;;5.30;4.70;;;;;;;;;;4998298;28;20026;-75
2023/07/09 00:57:55;;;;;;;6.28;5.43;;;;;;;;;;4981868;28;20078;-75
2023/07/09 01:00:26;;;;;;;6.35;4.78;;;;;;;;;;5014262;28;20084;-75
2023/07/09 01:02:52;;;;;;;8.32;5.47;;;;;;;;;;4981491;28;20120;-74
2023/07/09 01:05:19;;;;;;;8.13;5.15;;;;;;;;;;4981187;28;20122;-75
2023/07/09 01:07:45;;;;;;;8.57;5.13;;;;;;;;;;4998028;28;20034;-75
2023/07/09 01:10:15;;;;;;;7.60;5.30;;;;;;;;;;4997870;28;20045;-74
2023/07/09 01:12:41;;;;;;;6.78;5.35;;;;;;;;;;5013739;28;20033;-74
2023/07/09 01:15:07;;;;;;;7.50;5.43;;;;;;;;;;4997295;28;20050;-74
2023/07/09 01:17:33;;;;;;;7.82;5.43;;;;;;;;;;4980873;28;20107;-74
2023/07/09 01:19:59;;;;;;;9.95;5.93;;;;;;;;;;4997597;28;20044;-74
2023/07/09 01:22:25;;;;;;;8.65;5.43;;;;;;;;;;4981061;28;20505;-75
2023/07/09 01:24:50;;;;;;;7.97;5.30;;;;;;;;;;4980934;28;20458;-75
2023/07/09 01:27:17;;;;;;;6.88;5.25;;;;;;;;;;5013839;28;20034;-74
2023/07/09 01:29:48;;;;;;;6.97;5.03;;;;;;;;;;5043499;28;20037;-75
2023/07/09 01:32:19;;;;;;;6.97;5.38;;;;;;;;;;5038417;28;20111;-74
2023/07/09 01:34:47;;;;;;;6.93;5.20;;;;;;;;;;5020613;28;20021;-74
2023/07/09 01:37:18;;;;;;;7.90;5.22;;;;;;;;;;5038012;28;20025;-74
2023/07/09 01:39:44;;;;;;;7.53;5.55;;;;;;;;;;5037179;28;20047;-74
2023/07/09 01:42:09;;;;;;;6.47;5.22;;;;;;;;;;5037070;28;20112;-74
2023/07/09 01:44:36;;;;;;;6.07;5.40;;;;;;;;;;5037132;28;20075;-74
2023/07/09 01:47:03;;;;;;;7.20;5.35;;;;;;;;;;5020619;28;20482;-75
2023/07/09 01:49:29;;;;;;;8.38;5.38;;;;;;;;;;5036886;28;20120;-74
2023/07/09 01:51:55;;;;;;;7.35;5.32;;;;;;;;;;5036937;28;20025;-75
2023/07/09 01:54:20;;;;;;;9.75;5.75;;;;;;;;;;5037008;28;20078;-74
2023/07/09 01:56:46;;;;;;;7.32;5.45;;;;;;;;;;5037478;28;20025;-74
2023/07/09 01:59:11;;;;;;;5.95;5.20;;;;;;;;;;5055328;28;20025;-75
2023/07/09 02:01:37;;;;;;;6.32;5.28;;;;;;;;;;5020440;28;20040;-75
2023/07/09 02:04:03;;;;;;;7.78;5.93;;;;;;;;;;5038086;28;20025;-75
2023/07/09 02:06:31;;;;;;;6.78;4.88;;;;;;;;;;5055939;28;20447;-75
2023/07/09 02:08:58;;;;;;;7.15;5.38;;;;;;;;;;5037630;28;20029;-75
2023/07/09 02:11:23;;;;;;;6.35;5.38;;;;;;;;;;5037342;28;20025;-75
2023/07/09 02:13:49;;;;;;;6.13;5.22;;;;;;;;;;5021437;28;20475;-75
2023/07/09 02:16:14;;;;;;;5.63;5.00;;;;;;;;;;5036956;28;20094;-74
2023/07/09 02:18:39;;;;;;;6.03;5.30;;;;;;;;;;5053466;28;20049;-75
2023/07/09 02:21:05;;;;;;;6.32;5.30;;;;;;;;;;5054783;28;20552;-75
2023/07/09 02:23:30;;;;;;;6.22;5.05;;;;;;;;;;5055976;28;20079;-74
2023/07/09 02:25:56;;;;;;;7.90;5.40;;;;;;;;;;5057302;28;20027;-74
2023/07/09 02:28:21;;;;;;;9.07;5.43;;;;;;;;;;5036933;28;20071;-75
2023/07/09 02:30:46;;;;;;;7.47;5.53;;;;;;;;;;5055177;28;20029;-74
2023/07/09 02:33:12;;;;;;;6.03;5.38;;;;;;;;;;5053446;28;20033;-75
2023/07/09 02:35:37;;;;;;;7.40;5.40;;;;;;;;;;5053464;28;20202;-74
2023/07/09 02:38:03;;;;;;;7.28;5.38;;;;;;;;;;5053685;28;20124;-74
2023/07/09 02:40:28;;;;;;;6.10;5.50;;;;;;;;;;5052986;28;20112;-75
2023/07/09 02:42:54;;;;;;;7.85;5.57;;;;;;;;;;5035820;28;20142;-75
2023/07/09 02:45:19;;;;;;;7.35;5.65;;;;;;;;;;5055068;28;20037;-74
2023/07/09 02:47:45;;;;;;;6.50;5.03;;;;;;;;;;5053024;28;20048;-75
2023/07/09 02:50:11;;;;;;;8.95;5.50;;;;;;;;;;5052617;28;20483;-75
2023/07/09 02:52:36;;;;;;;8.13;5.97;;;;;;;;;;5052458;28;20147;-75
2023/07/09 02:55:02;;;;;;;6.07;5.25;;;;;;;;;;5052933;28;20092;-75
2023/07/09 02:57:27;;;;;;;7.72;5.65;;;;;;;;;;5035897;28;20115;-75
2023/07/09 02:59:53;;;;;;;7.03;5.40;;;;;;;;;;5036086;28;20056;-75
2023/07/09 03:02:18;;;;;;;7.93;5.75;;;;;;;;;;5052383;28;20399;-75
2023/07/09 03:04:43;;;;;;;6.97;5.75;;;;;;;;;;5035738;28;20511;-74
2023/07/09 03:07:09;;;;;;;8.80;5.60;;;;;;;;;;5052279;28;20029;-74
2023/07/09 03:09:34;;;;;;;7.55;5.72;;;;;;;;;;5052714;28;20033;-75
2023/07/09 03:12:00;;;;;;;6.60;5.20;;;;;;;;;;5035717;28;20063;-75
2023/07/09 03:14:25;;;;;;;6.20;5.32;;;;;;;;;;5055568;28;20133;-75
2023/07/09 03:16:51;;;;;;;14.25;5.85;;;;;;;;;;5055408;28;20119;-75
2023/07/09 03:19:16;;;;;;;7.53;5.47;;;;;;;;;;5055988;28;20033;-74
2023/07/09 03:21:42;;;;;;;8.65;6.22;;;;;;;;;;5056299;28;20029;-75
2023/07/09 03:24:08;;;;;;;6.28;5.38;;;;;;;;;;5039757;28;20092;-75
2023/07/09 03:26:34;;;;;;;6.55;5.28;;;;;;;;;;5058527;28;20026;-75
2023/07/09 03:28:59;;;;;;;6.30;5.22;;;;;;;;;;5057728;28;20032;-74
2023/07/09 03:31:25;;;;;;;6.97;5.30;;;;;;;;;;5058083;28;20035;-75
2023/07/09 03:33:51;;;;;;;6.93;5.45;;;;;;;;;;5038981;28;20044;-75
2023/07/09 03:36:17;;;;;;;6.75;5.57;;;;;;;;;;5055555;28;20039;-75
2023/07/09 03:38:42;;;;;;;6.03;5.03;;;;;;;;;;5038715;28;20017;-74
2023/07/09 03:41:08;;;;;;;8.10;5.82;;;;;;;;;;5075783;28;20032;-75
2023/07/09 03:43:33;;;;;;;6.18;5.40;;;;;;;;;;5038626;28;20025;-75
2023/07/09 03:45:58;;;;;;;10.20;5.88;;;;;;;;;;5055178;28;20395;-74
2023/07/09 03:48:24;;;;;;;8.38;5.60;;;;;;;;;;5055225;28;20037;-75
2023/07/09 03:50:49;;;;;;;12.77;5.72;;;;;;;;;;5072902;28;20464;-75
2023/07/09 03:53:16;;;;;;;6.13;5.47;;;;;;;;;;5074320;28;20025;-75
2023/07/09 03:55:42;;;;;;;6.22;5.55;;;;;;;;;;5059333;28;20108;-75
2023/07/09 03:58:08;;;;;;;8.90;5.70;;;;;;;;;;5059526;28;20099;-74
2023/07/09 04:00:33;;;;;;;6.65;5.28;;;;;;;;;;5076942;28;20039;-74
2023/07/09 04:02:59;;;;;;;6.50;5.30;;;;;;;;;;5059696;28;20036;-75
2023/07/09 04:05:25;;;;;;;8.25;5.38;;;;;;;;;;5077387;28;20086;-74
2023/07/09 04:07:51;;;;;;;7.90;5.93;;;;;;;;;;5076997;28;20038;-74
2023/07/09 04:10:17;;;;;;;7.57;5.50;;;;;;;;;;5042427;28;20556;-74
2023/07/09 04:12:42;;;;;;;7.28;5.45;;;;;;;;;;5042593;28;20043;-74
2023/07/09 04:15:08;;;;;;;6.75;5.65;;;;;;;;;;5055328;28;20522;-74
2023/07/09 04:17:34;;;;;;;8.35;5.43;;;;;;;;;;5055568;28;20483;-75
2023/07/09 04:20:00;;;;;;;11.02;5.57;;;;;;;;;;5055505;28;20049;-74
2023/07/09 04:22:25;;;;;;;9.48;5.65;;;;;;;;;;5055544;28;20445;-74
2023/07/09 04:24:52;;;;;;;7.78;5.38;;;;;;;;;;5055788;28;20033;-74
2023/07/09 04:27:17;;;;;;;6.03;5.18;;;;;;;;;;5055434;28;20025;-75
2023/07/09 04:29:43;;;;;;;5.75;4.95;;;;;;;;;;5055316;28;20082;-74
2023/07/09 04:32:13;;;;;;;7.80;5.07;;;;;;;;;;5055432;28;20365;-75
2023/07/09 04:34:39;;;;;;;6.70;4.95;;;;;;;;;;5056667;28;20087;-74
2023/07/09 04:37:08;;;;;;;6.80;5.65;;;;;;;;;;5056540;28;20037;-74
2023/07/09 04:39:34;;;;;;;7.63;5.50;;;;;;;;;;5055754;28;20047;-74
2023/07/09 04:41:59;;;;;;;8.85;4.95;;;;;;;;;;5055049;28;20041;-74
2023/07/09 04:44:25;;;;;;;6.03;5.43;;;;;;;;;;5055044;28;20028;-75
2023/07/09 04:46:50;;;;;;;5.90;5.15;;;;;;;;;;5038522;28;20163;-75
2023/07/09 04:49:15;;;;;;;7.95;5.50;;;;;;;;;;5055192;28;20040;-75
2023/07/09 04:51:41;;;;;;;6.70;5.82;;;;;;;;;;5038188;28;20502;-74
2023/07/09 04:54:06;;;;;;;6.13;4.95;;;;;;;;;;5054849;28;20036;-75
2023/07/09 04:56:32;;;;;;;7.70;5.70;;;;;;;;;;5055342;28;20052;-74
2023/07/09 04:58:58;;;;;;;8.32;5.47;;;;;;;;;;5054809;28;20045;-74
2023/07/09 05:01:23;;;;;;;7.50;5.18;;;;;;;;;;5054924;28;20083;-75
2023/07/09 05:03:49;;;;;;;9.18;5.43;;;;;;;;;;5056094;28;20028;-75
2023/07/09 05:06:14;;;;;;;6.70;5.35;;;;;;;;;;5037168;28;20034;-74
2023/07/09 05:08:41;;;;;;;6.05;5.30;;;;;;;;;;5054906;28;20033;-74
2023/07/09 05:11:07;;;;;;;6.53;5.28;;;;;;;;;;5038278;28;20454;-74
2023/07/09 05:13:32;;;;;;;6.63;5.18;;;;;;;;;;5038673;28;20063;-74
2023/07/09 05:15:57;;;;;;;5.82;5.18;;;;;;;;;;5021399;28;20087;-74
2023/07/09 05:18:23;;;;;;;7.13;5.30;;;;;;;;;;5056374;28;20376;-75
2023/07/09 05:20:49;;;;;;;9.63;5.18;;;;;;;;;;5038211;28;20033;-74
2023/07/09 05:23:14;;;;;;;7.47;5.55;;;;;;;;;;5055834;28;20029;-74
2023/07/09 05:25:40;;;;;;;8.07;5.78;;;;;;;;;;5055562;28;20052;-74
2023/07/09 05:28:05;;;;;;;6.10;5.22;;;;;;;;;;5020985;28;20043;-74
2023/07/09 05:30:32;;;;;;;6.00;5.38;;;;;;;;;;5037476;28;20036;-74
2023/07/09 05:32:57;;;;;;;7.20;5.55;;;;;;;;;;5037623;28;20036;-75
2023/07/09 05:35:26;;;;;;;7.35;5.45;;;;;;;;;;5037885;28;20029;-75
2023/07/09 05:37:55;;;;;;;7.25;5.20;;;;;;;;;;5037662;28;20063;-74
2023/07/09 05:40:21;;;;;;;8.38;5.90;;;;;;;;;;5037448;28;20025;-74
2023/07/09 05:42:50;;;;;;;6.40;5.05;;;;;;;;;;5055891;28;20029;-75
2023/07/09 05:45:16;;;;;;;7.85;5.40;;;;;;;;;;5037166;28;20021;-75
2023/07/09 05:47:41;;;;;;;6.80;5.57;;;;;;;;;;5020436;28;20091;-74
2023/07/09 05:50:07;;;;;;;9.13;5.45;;;;;;;;;;5037309;28;20028;-74
2023/07/09 05:52:33;;;;;;;7.82;5.32;;;;;;;;;;5020706;28;20034;-74
2023/07/09 05:54:59;;;;;;;6.85;5.20;;;;;;;;;;5053681;28;20045;-74
2023/07/09 05:57:25;;;;;;;5.88;5.15;;;;;;;;;;5020477;28;20078;-74
2023/07/09 05:59:54;;;;;;;6.55;5.32;;;;;;;;;;5037428;28;20024;-75
2023/07/09 06:02:21;;;;;;;8.98;5.57;;;;;;;;;;5005412;28;20506;-75
2023/07/09 06:04:49;;;;;;;10.55;5.38;;;;;;;;;;5020669;28;20031;-74
2023/07/09 06:07:15;;;;;;;8.55;5.72;;;;;;;;;;5054591;28;20025;-74
2023/07/09 06:09:40;;;;;;;7.07;5.28;;;;;;;;;;5037026;28;20029;-75
2023/07/09 06:12:06;;;;;;;7.38;5.97;;;;;;;;;;5037427;28;20040;-75
2023/07/09 06:14:32;;;;;;;9.27;5.80;;;;;;;;;;5054142;28;20128;-75
2023/07/09 06:16:59;;;;;;;10.48;5.65;;;;;;;;;;5035663;28;20027;-74
2023/07/09 06:19:24;;;;;;;7.22;5.07;;;;;;;;;;5019841;28;20123;-74
2023/07/09 06:21:49;;;;;;;13.73;6.43;;;;;;;;;;5019948;28;20060;-74
2023/07/09 06:24:15;;;;;;;10.70;6.22;;;;;;;;;;5019915;28;20538;-74
2023/07/09 06:26:40;;;;;;;10.85;6.93;;;;;;;;;;5037046;28;20033;-74
2023/07/09 06:29:06;;;;;;;10.73;7.63;;;;;;;;;;5036368;28;20078;-75
2023/07/09 06:31:31;;;;;;;12.82;7.82;;;;;;;;;;5020037;28;20033;-74
2023/07/09 06:33:57;;;;;;;15.02;7.57;;;;;;;;;;5054442;28;20395;-75
2023/07/09 06:36:22;;;;;;;12.85;7.22;;;;;;;;;;5037073;28;20113;-75
2023/07/09 06:38:48;;;;;;;10.77;7.50;;;;;;;;;;5036532;28;20040;-75
2023/07/09 06:41:14;;;;;;;17.65;6.65;;;;;;;;;;5054177;28;20099;-75
2023/07/09 06:43:39;;;;;;;22.40;9.40;;;;;;;;;;5036578;28;20021;-75
2023/07/09 06:46:06;;;;;;;20.23;8.85;;;;;;;;;;5019889;28;20037;-74
2023/07/09 06:48:32;;;;;;;16.63;8.32;;;;;;;;;;5036615;28;20032;-74
2023/07/09 06:50:58;;;;;;;14.05;8.57;;;;;;;;;;5019624;28;20035;-75
2023/07/09 06:53:24;;;;;;;15.35;8.63;;;;;;;;;;5019716;28;20049;-74
2023/07/09 06:55:50;;;;;;;17.40;8.88;;;;;;;;;;5036176;28;20079;-74
2023/07/09 06:58:16;;;;;;;23.55;8.65;;;;;;;;;;5036408;28;20021;-75
2023/07/09 07:00:42;;;;;;;17.58;8.32;;;;;;;;;;5035939;28;20376;-74
2023/07/09 07:03:09;;;;;;;17.73;8.73;;;;;;;;;;5036394;28;20055;-74
2023/07/09 07:05:34;;;;;;;16.73;8.15;;;;;;;;;;5035733;28;20025;-74
2023/07/09 07:08:00;;;;;;;17.17;8.38;;;;;;;;;;5018902;28;20392;-74
2023/07/09 07:10:26;;;;;;;12.40;7.60;;;;;;;;;;5019127;28;20037;-75
2023/07/09 07:12:52;;;;;;;14.68;8.00;;;;;;;;;;5035988;28;20589;-75
2023/07/09 07:15:17;;;;;;;16.88;8.32;;;;;;;;;;5053526;28;20142;-74
2023/07/09 07:17:43;;;;;;;14.85;8.07;;;;;;;;;;5035640;28;20114;-74
2023/07/09 07:20:10;;;;;;;13.35;7.88;;;;;;;;;;5035874;28;20040;-74
2023/07/09 07:22:37;;;;;;;14.93;8.25;;;;;;;;;;5035334;28;20576;-74
2023/07/09 07:25:04;;;;;;;13.32;8.07;;;;;;;;;;5035833;28;20456;-74
2023/07/09 07:27:29;;;;;;;14.25;7.65;;;;;;;;;;5018830;28;20040;-75
2023/07/09 07:29:54;;;;;;;14.38;7.82;;;;;;;;;;5034986;28;20037;-74
2023/07/09 07:32:20;;;;;;;15.93;7.32;;;;;;;;;;5018734;28;20052;-74
2023/07/09 07:34:47;;;;;;;16.92;8.20;;;;;;;;;;5052878;28;20033;-74
2023/07/09 07:37:12;;;;;;;11.63;7.47;;;;;;;;;;5053465;28;20431;-74
2023/07/09 07:39:38;;;;;;;12.30;7.32;;;;;;;;;;5035183;28;20152;-75
2023/07/09 07:42:04;;;;;;;13.23;6.95;;;;;;;;;;5018625;28;20078;-74
2023/07/09 07:44:29;;;;;;;12.27;7.53;;;;;;;;;;5053147;28;20433;-75
2023/07/09 07:46:54;;;;;;;12.68;7.35;;;;;;;;;;5035527;28;20104;-75
2023/07/09 07:49:20;;;;;;;11.15;7.07;;;;;;;;;;5018457;28;20491;-74
2023/07/09 07:51:45;;;;;;;12.75;7.15;;;;;;;;;;5052852;28;20047;-75
2023/07/09 07:54:11;;;;;;;15.80;7.50;;;;;;;;;;5035276;28;20025;-75
2023/07/09 07:56:37;;;;;;;13.25;6.57;;;;;;;;;;5035209;28;20152;-73
2023/07/09 07:59:03;;;;;;;15.90;7.45;;;;;;;;;;5053052;28;20025;-74
2023/07/09 08:01:28;;;;;;;10.98;6.63;;;;;;;;;;5052751;28;20067;-75
2023/07/09 08:03:54;;;;;;;12.60;6.90;;;;;;;;;;5018439;28;20106;-75
2023/07/09 08:06:20;;;;;;;10.20;6.55;;;;;;;;;;5052774;28;20044;-74
2023/07/09 08:08:45;;;;;;;9.00;6.95;;;;;;;;;;5018349;28;20032;-74
2023/07/09 08:11:11;;;;;;;12.80;6.68;;;;;;;;;;5034747;28;20079;-74
2023/07/09 08:13:37;;;;;;;18.60;7.75;;;;;;;;;;5053268;28;20029;-74
2023/07/09 08:16:05;;;;;;;21.27;8.40;;;;;;;;;;5035973;28;20126;-74
2023/07/09 08:18:31;;;;;;;24.63;9.32;;;;;;;;;;5018299;28;20468;-74
2023/07/09 08:20:58;;;;;;;23.95;9.25;;;;;;;;;;5052879;28;20092;-74
2023/07/09 08:23:23;;;;;;;15.70;8.73;;;;;;;;;;5018437;28;20056;-74
2023/07/09 08:25:56;;;;;;;20.00;9.57;;;;;;;;;;5018294;28;20460;-74
2023/07/09 08:28:22;;;;;;;23.63;9.13;;;;;;;;;;5018102;28;20021;-74
2023/07/09 08:30:48;;;;;;;24.58;9.93;;;;;;;;;;5034888;28;20059;-74
2023/07/09 08:33:13;;;;;;;20.65;9.88;;;;;;;;;;5052363;28;20078;-74
2023/07/09 08:35:42;;;;;;;23.38;10.00;;;;;;;;;;5034450;28;20399;-74
2023/07/09 08:38:07;;;;;;;23.77;9.50;;;;;;;;;;5034498;28;20040;-74
2023/07/09 08:40:33;;;;;;;18.55;9.00;;;;;;;;;;5035855;28;20396;-74
2023/07/09 08:43:23;;;;;;;17.33;9.05;;;;;;;;;;5038252;28;20472;-75
2023/07/09 08:46:03;;;;;;;22.85;9.05;;;;;;;;;;5056555;28;20089;-74
2023/07/09 08:48:38;;;;;;;18.38;8.68;;;;;;;;;;5038899;28;20040;-74
2023/07/09 08:51:27;;;;;;;23.10;8.88;;;;;;;;;;5021509;28;20033;-75
2023/07/09 08:53:57;;;;;;;16.30;8.73;;;;;;;;;;5038138;28;20021;-74
2023/07/09 08:56:23;;;;;;;17.52;8.82;;;;;;;;;;5021761;28;20115;-74
2023/07/09 08:58:50;;;;;;;16.67;8.60;;;;;;;;;;5038413;28;20429;-74
2023/07/09 09:01:25;;;;;;;18.60;8.60;;;;;;;;;;5038595;28;20116;-75
2023/07/09 09:03:53;;;;;;;16.42;8.57;;;;;;;;;;5038858;28;20524;-74
2023/07/09 09:06:21;;;;;;;12.10;8.02;;;;;;;;;;5038396;28;20033;-74
2023/07/09 09:09:02;;;;;;;15.32;8.13;;;;;;;;;;5054454;28;20127;-75
2023/07/09 09:11:46;;;;;;;13.82;7.57;;;;;;;;;;5037818;28;20029;-74
2023/07/09 09:14:19;;;;;;;15.35;7.97;;;;;;;;;;5058736;28;20125;-74
2023/07/09 09:16:46;;;;;;;13.57;8.02;;;;;;;;;;5056313;28;20113;-74
2023/07/09 09:19:27;;;;;;;14.50;7.88;;;;;;;;;;5054444;28;20029;-74
2023/07/09 09:22:05;;;;;;;10.73;7.22;;;;;;;;;;5055648;28;20025;-74
2023/07/09 09:24:37;;;;;;;14.23;7.65;;;;;;;;;;5058078;28;20033;-74
2023/07/09 09:27:02;;;;;;;15.00;7.57;;;;;;;;;;5057379;28;20017;-75
2023/07/09 09:29:28;;;;;;;11.55;7.20;;;;;;;;;;5040853;28;20036;-74
2023/07/09 09:31:55;;;;;;;11.23;6.95;;;;;;;;;;5075134;28;20032;-73
2023/07/09 09:34:24;;;;;;;13.00;7.53;;;;;;;;;;5057170;28;20036;-75
2023/07/09 09:36:50;;;;;;;12.27;6.45;;;;;;;;;;5073805;28;20029;-74
2023/07/09 09:39:17;;;;;;;12.95;7.15;;;;;;;;;;5080587;28;20070;-75
2023/07/09 09:41:43;;;;;;;12.13;7.18;;;;;;;;;;5076912;28;20055;-74
2023/07/09 09:44:21;;;;;;;10.68;6.88;;;;;;;;;;5064281;28;20032;-75
2023/07/09 09:46:49;;;;;;;12.45;7.22;;;;;;;;;;5077461;28;20462;-75
2023/07/09 09:49:14;;;;;;;12.25;6.55;;;;;;;;;;5095273;28;20119;-74
2023/07/09 09:51:44;;;;;;;10.93;6.78;;;;;;;;;;5060161;28;20052;-74
2023/07/09 09:54:30;;;;;;;9.13;6.63;;;;;;;;;;5076920;28;20070;-74
2023/07/09 09:56:56;;;;;;;11.57;6.30;;;;;;;;;;5076787;28;20036;-74
2023/07/09 09:59:31;;;;;;;10.32;6.50;;;;;;;;;;5095607;28;20032;-74
2023/07/09 10:01:59;;;;;;;10.88;6.55;;;;;;;;;;5060102;28;20130;-74
2023/07/09 10:04:24;;;;;;;12.07;6.07;;;;;;;;;;5060039;28;20134;-75
2023/07/09 10:06:54;;;;;;;11.93;6.75;;;;;;;;;;5060298;28;20103;-74
2023/07/09 10:09:49;;;;;;;10.50;6.13;;;;;;;;;;5076878;28;20024;-74
2023/07/09 10:12:48;;;;;;;10.65;6.03;;;;;;;;;;5095719;28;20024;-74
2023/07/09 10:15:24;;;;;;;10.68;5.97;;;;;;;;;;5091479;28;20054;-75
2023/07/09 10:17:52;;;;;;;13.48;6.43;;;;;;;;;;5056780;28;20047;-74
2023/07/09 10:20:32;;;;;;;8.55;6.18;;;;;;;;;;5074853;28;20028;-74
2023/07/09 10:23:16;;;;;;;11.98;6.68;;;;;;;;;;5074470;28;20024;-74
2023/07/09 10:25:57;;;;;;;7.95;6.03;;;;;;;;;;5039995;28;20134;-74
2023/07/09 10:28:45;;;;;;;9.32;6.15;;;;;;;;;;5056750;28;20039;-75
2023/07/09 10:31:15;;;;;;;17.52;6.88;;;;;;;;;;5056758;28;20024;-74
2023/07/09 10:33:56;;;;;;;17.35;7.97;;;;;;;;;;5056252;28;20020;-74
2023/07/09 10:36:25;;;;;;;21.02;8.20;;;;;;;;;;5056582;28;20029;-73
2023/07/09 10:39:11;;;;;;;14.98;8.20;;;;;;;;;;5056539;28;20012;-74
2023/07/09 10:41:38;;;;;;;16.30;8.75;;;;;;;;;;5056036;28;20028;-74
2023/07/09 10:44:05;;;;;;;15.35;8.18;;;;;;;;;;5056089;28;20413;-74
2023/07/09 10:46:33;;;;;;;15.60;8.18;;;;;;;;;;5073918;28;20024;-74
2023/07/09 10:49:00;;;;;;;13.20;7.60;;;;;;;;;;5039212;28;20436;-74
2023/07/09 10:51:32;;;;;;;13.52;7.82;;;;;;;;;;5055935;28;20020;-75
2023/07/09 10:54:02;;;;;;;12.82;7.22;;;;;;;;;;5055830;28;20479;-75
2023/07/09 10:56:32;;;;;;;13.13;7.32;;;;;;;;;;5055988;28;20388;-74
2023/07/09 10:59:06;;;;;;;13.95;7.70;;;;;;;;;;5039491;28;20029;-73
2023/07/09 11:01:35;;;;;;;15.25;7.70;;;;;;;;;;5074017;28;20027;-73
2023/07/09 11:04:05;;;;;;;10.77;6.75;;;;;;;;;;5055211;28;20107;-73
2023/07/09 11:06:38;;;;;;;12.90;6.78;;;;;;;;;;5073618;28;20586;-74
2023/07/09 11:09:05;;;;;;;;;;;;;;;;;;5039890;28;20029;-74
2023/07/09 11:11:38;;;;;;;9.90;5.88;;;;;;;;;;5056040;28;19940;-74
2023/07/09 11:14:15;;;;;;;14.18;6.82;;;;;;;;;;5056152;28;20099;-74
2023/07/09 11:16:42;;;;;;;16.73;6.53;;;;;;;;;;5055094;28;20045;-75
2023/07/09 11:19:13;;;;;;;9.07;6.28;;;;;;;;;;5055586;28;20029;-75
2023/07/09 11:21:58;;;;;;;10.88;6.57;;;;;;;;;;5055099;28;20039;-74
2023/07/09 11:24:55;;;;;;;11.13;6.28;;;;;;;;;;5073022;28;20025;-74
2023/07/09 11:27:26;;;;;;;10.18;5.60;;;;;;;;;;5062776;28;20436;-74
2023/07/09 11:30:00;;;;;;;10.48;6.00;;;;;;;;;;5038284;28;20028;-74
2023/07/09 11:32:27;;;;;;;7.50;5.45;;;;;;;;;;5055166;28;20434;-73
2023/07/09 11:34:53;;;;;;;8.73;5.70;;;;;;;;;;5055523;28;20047;-75
2023/07/09 11:37:25;;;;;;;7.97;5.80;;;;;;;;;;5055405;28;20467;-75
2023/07/09 11:39:50;;;;;;;9.13;6.35;;;;;;;;;;5038302;28;20052;-74
2023/07/09 11:42:33;;;;;;;10.48;6.13;;;;;;;;;;5038354;28;20063;-74
2023/07/09 11:45:06;;;;;;;12.02;6.10;;;;;;;;;;5053941;28;20013;-73
2023/07/09 11:47:37;;;;;;;15.98;7.78;;;;;;;;;;5037600;28;20031;-75
2023/07/09 11:50:25;;;;;;;11.02;6.43;;;;;;;;;;5054125;28;20029;-74
2023/07/09 11:53:05;;;;;;;10.65;6.60;;;;;;;;;;5072071;28;20425;-74
2023/07/09 11:55:45;;;;;;;11.13;6.45;;;;;;;;;;5055149;28;20063;-74
2023/07/09 11:58:12;;;;;;;12.32;7.03;;;;;;;;;;5054974;28;20020;-74
2023/07/09 12:00:40;;;;;;;18.13;7.13;;;;;;;;;;5038225;28;20032;-75
2023/07/09 12:03:09;;;;;;;15.13;7.28;;;;;;;;;;5055143;28;20036;-74
2023/07/09 12:05:35;;;;;;;17.45;8.52;;;;;;;;;;5038075;28;20475;-75
2023/07/09 12:08:01;;;;;;;14.95;7.82;;;;;;;;;;5038202;28;20082;-74
2023/07/09 12:10:28;;;;;;;17.77;8.43;;;;;;;;;;5072587;28;20055;-74
2023/07/09 12:12:58;;;;;;;19.42;9.07;;;;;;;;;;5054830;28;20025;-75
2023/07/09 12:15:29;;;;;;;17.70;8.50;;;;;;;;;;5055667;28;20052;-74
2023/07/09 12:17:59;;;;;;;18.73;8.13;;;;;;;;;;5058748;28;20111;-74
2023/07/09 12:20:29;;;;;;;14.13;8.15;;;;;;;;;;5060466;28;20032;-74
2023/07/09 12:22:54;;;;;;;18.50;8.43;;;;;;;;;;5061122;28;20032;-74
2023/07/09 12:25:23;;;;;;;14.73;8.38;;;;;;;;;;5061557;28;20031;-74
2023/07/09 12:27:49;;;;;;;15.73;8.98;;;;;;;;;;5077532;28;20198;-73
2023/07/09 12:30:14;;;;;;;19.73;8.40;;;;;;;;;;5060347;28;20115;-74
2023/07/09 12:32:46;;;;;;;16.02;8.75;;;;;;;;;;5028283;28;20387;-74
2023/07/09 12:35:13;;;;;;;16.33;8.07;;;;;;;;;;5059881;28;20078;-74
2023/07/09 12:37:39;;;;;;;15.20;8.07;;;;;;;;;;5058856;28;20034;-74
2023/07/09 12:40:16;;;;;;;13.30;7.90;;;;;;;;;;5058777;28;20534;-74
2023/07/09 12:42:43;;;;;;;14.05;8.38;;;;;;;;;;5058670;28;20020;-75
2023/07/09 12:45:19;;;;;;;15.68;8.05;;;;;;;;;;5042029;28;20024;-74
2023/07/09 12:47:46;;;;;;;15.15;8.10;;;;;;;;;;5041770;28;20058;-74
2023/07/09 12:50:22;;;;;;;15.00;7.85;;;;;;;;;;5025405;28;20437;-74
2023/07/09 12:52:48;;;;;;;16.40;8.48;;;;;;;;;;5042709;28;20059;-74
2023/07/09 12:55:22;;;;;;;15.30;8.15;;;;;;;;;;5059170;28;20016;-74
2023/07/09 12:57:47;;;;;;;;;;;;;;;;;;5059506;28;20025;-75
2023/07/09 13:00:22;;;;;;;12.23;7.00;;;;;;;;;;5060017;28;19947;-75
2023/07/09 13:02:53;;;;;;;10.77;6.82;;;;;;;;;;5077118;28;20117;-74
2023/07/09 13:05:21;;;;;;;12.98;7.25;;;;;;;;;;5058322;28;20505;-75
2023/07/09 13:07:50;;;;;;;11.38;7.53;;;;;;;;;;5077029;28;20032;-74
2023/07/09 13:10:19;;;;;;;10.52;7.00;;;;;;;;;;5058880;28;20096;-74
2023/07/09 13:12:48;;;;;;;10.93;7.35;;;;;;;;;;5058289;28;20480;-75
2023/07/09 13:15:39;;;;;;;12.77;6.97;;;;;;;;;;5057871;28;20052;-75
2023/07/09 13:18:09;;;;;;;11.20;6.95;;;;;;;;;;5057277;28;20058;-75
2023/07/09 13:20:37;;;;;;;11.77;7.00;;;;;;;;;;5074985;28;20033;-75
2023/07/09 13:23:11;;;;;;;10.38;6.15;;;;;;;;;;5057294;28;20023;-75
2023/07/09 13:25:39;;;;;;;9.38;6.47;;;;;;;;;;5039870;28;20020;-76
2023/07/09 13:28:04;;;;;;;11.40;6.65;;;;;;;;;;5056860;28;20024;-75
2023/07/09 13:30:31;;;;;;;10.55;6.28;;;;;;;;;;5074525;28;20032;-74
2023/07/09 13:32:57;;;;;;;8.45;6.22;;;;;;;;;;5074659;28;20032;-75
2023/07/09 13:35:22;;;;;;;8.27;6.03;;;;;;;;;;5056659;28;20386;-76
2023/07/09 13:37:48;;;;;;;8.32;6.30;;;;;;;;;;5056618;28;20116;-75
2023/07/09 13:40:15;;;;;;;6.93;5.70;;;;;;;;;;5056871;28;20039;-75
2023/07/09 13:42:42;;;;;;;9.25;6.32;;;;;;;;;;5039892;28;20033;-75
2023/07/09 13:45:24;;;;;;;9.43;6.07;;;;;;;;;;5074407;28;20432;-76
2023/07/09 13:47:53;;;;;;;7.32;5.35;;;;;;;;;;5056396;28;20036;-75
2023/07/09 13:50:20;;;;;;;7.63;5.32;;;;;;;;;;5039543;28;20120;-75
2023/07/09 13:52:46;;;;;;;9.65;5.80;;;;;;;;;;5056312;28;20016;-75
2023/07/09 13:55:23;;;;;;;6.85;4.90;;;;;;;;;;5039513;28;20032;-74
2023/07/09 13:57:52;;;;;;;6.95;5.10;;;;;;;;;;5039722;28;20099;-75
2023/07/09 14:00:18;;;;;;;7.63;5.18;;;;;;;;;;5074916;28;20028;-74
2023/07/09 14:02:44;;;;;;;7.82;5.47;;;;;;;;;;5056170;28;20494;-74
2023/07/09 14:05:12;;;;;;;6.53;4.90;;;;;;;;;;5055834;28;20047;-75
2023/07/09 14:07:40;;;;;;;7.25;5.13;;;;;;;;;;5055924;28;20036;-75
2023/07/09 14:10:18;;;;;;;6.63;5.03;;;;;;;;;;5039129;28;20029;-76
2023/07/09 14:12:45;;;;;;;9.13;5.45;;;;;;;;;;5056838;28;20029;-75
2023/07/09 14:15:19;;;;;;;7.53;5.03;;;;;;;;;;5039456;28;20045;-75
2023/07/09 14:17:46;;;;;;;6.15;5.32;;;;;;;;;;5056439;28;20040;-75
2023/07/09 14:20:16;;;;;;;8.25;5.18;;;;;;;;;;5056260;28;20060;-74
2023/07/09 14:22:42;;;;;;;6.25;4.88;;;;;;;;;;5056244;28;20458;-75
2023/07/09 14:25:19;;;;;;;7.57;5.20;;;;;;;;;;5039294;28;20051;-76
2023/07/09 14:27:45;;;;;;;6.15;4.95;;;;;;;;;;5055935;28;20054;-75
2023/07/09 14:30:16;;;;;;;6.15;4.90;;;;;;;;;;5055721;28;20032;-76
2023/07/09 14:32:42;;;;;;;12.43;5.10;;;;;;;;;;5073446;28;20035;-77
2023/07/09 14:35:21;;;;;;;7.50;4.93;;;;;;;;;;5073571;28;20028;-76
2023/07/09 14:37:49;;;;;;;6.95;4.65;;;;;;;;;;5038057;28;20159;-76
2023/07/09 14:40:15;;;;;;;6.15;4.32;;;;;;;;;;5039316;28;20032;-77
2023/07/09 14:42:41;;;;;;;6.43;4.18;;;;;;;;;;5055478;28;20028;-76
2023/07/09 14:45:23;;;;;;;5.45;3.92;;;;;;;;;;5056169;28;20470;-76